Time;durP1;ratioP1;P1;durP2;ratioP2;P2;SDS_P1;SDS_P2;PMS_P1;PMS_P2;Temp;Humidity;BMP_temperature;BMP_pressure;BME280_temperature;BME280_humidity;BME280_pressure;Samples;Min_cycle;Max_cycle;Signal;HPM_P1;HPM_P2
2023/08/21 00:00:53;;;;;;;6.73;6.13;;;19.70;99.90;19.20;100943;;;;603181;238;23108;-85
2023/08/21 00:03:21;;;;;;;7.33;5.87;;;19.70;99.90;19.20;100941;;;;593875;238;23053;-83
2023/08/21 00:05:50;;;;;;;6.30;5.70;;;19.70;99.90;19.20;100938;;;;598655;238;24069;-85
2023/08/21 00:08:18;;;;;;;7.40;6.73;;;19.70;99.90;19.20;100944;;;;593832;238;24050;-85
2023/08/21 00:10:46;;;;;;;6.67;6.03;;;19.70;99.90;19.10;100946;;;;594307;238;23150;-85
2023/08/21 00:13:14;;;;;;;7.10;6.50;;;19.70;99.90;19.10;100941;;;;594236;238;23055;-84
2023/08/21 00:15:41;;;;;;;7.13;5.73;;;19.60;99.90;19.00;100945;;;;594310;238;23166;-86
2023/08/21 00:18:09;;;;;;;6.73;6.13;;;19.60;99.90;18.90;100944;;;;593954;238;25160;-84
2023/08/21 00:20:41;;;;;;;6.63;6.03;;;19.50;99.90;18.80;100942;;;;593632;238;24020;-79
2023/08/21 00:23:05;;;;;;;6.53;5.87;;;19.40;99.90;18.70;100938;;;;602970;238;24028;-84
2023/08/21 00:25:34;;;;;;;5.70;5.20;;;19.20;99.90;18.50;100933;;;;593475;238;23084;-79
2023/08/21 00:28:03;;;;;;;6.13;5.60;;;19.00;99.90;18.40;100936;;;;594043;238;24075;-78
2023/08/21 00:30:31;;;;;;;8.67;6.03;;;19.00;99.90;18.30;100936;;;;593766;238;24065;-79
2023/08/21 00:32:58;;;;;;;7.43;6.30;;;18.90;99.90;18.10;100940;;;;593966;238;24029;-79
2023/08/21 00:35:26;;;;;;;6.40;5.80;;;18.80;99.90;18.00;100933;;;;593532;238;24023;-81
2023/08/21 00:37:54;;;;;;;6.77;6.17;;;18.60;99.90;17.90;100934;;;;593348;238;25148;-80
2023/08/21 00:40:22;;;;;;;7.20;6.13;;;18.50;99.90;17.80;100942;;;;594701;237;24017;-79
2023/08/21 00:42:50;;;;;;;6.80;6.10;;;18.40;99.90;17.70;100939;;;;595612;238;24040;-80
2023/08/21 00:45:18;;;;;;;6.83;6.20;;;18.30;99.90;17.70;100933;;;;594972;238;24018;-80
2023/08/21 00:47:47;;;;;;;6.80;6.13;;;18.20;99.90;17.60;100937;;;;594745;238;24041;-79
2023/08/21 00:50:15;;;;;;;10.63;6.23;;;18.20;99.90;17.60;100940;;;;594151;238;24064;-80
2023/08/21 00:52:46;;;;;;;7.57;5.70;;;18.10;99.90;17.60;100932;;;;600137;238;24032;-80
2023/08/21 00:55:17;;;;;;;8.40;5.90;;;18.20;99.90;17.60;100928;;;;594533;238;24113;-78
2023/08/21 00:57:42;;;;;;;6.67;6.03;;;18.20;99.90;17.70;100932;;;;594595;238;24096;-78
2023/08/21 01:00:10;;;;;;;6.93;6.23;;;18.20;99.90;17.70;100930;;;;603692;237;24020;-79
2023/08/21 01:02:38;;;;;;;9.13;6.57;;;18.30;99.90;17.70;100934;;;;592045;238;24072;-78
2023/08/21 01:05:09;;;;;;;6.33;5.70;;;18.30;99.90;17.70;100932;;;;593888;238;24082;-77
2023/08/21 01:07:34;;;;;;;6.17;5.60;;;18.30;99.90;17.80;100927;;;;593952;238;24083;-80
2023/08/21 01:10:05;;;;;;;7.93;6.40;;;18.30;99.90;17.80;100929;;;;603942;238;24124;-78
2023/08/21 01:13:00;;;;;;;7.53;6.53;;;18.40;99.90;17.70;100931;;;;601588;238;24116;-79
2023/08/21 01:15:32;;;;;;;8.03;5.70;;;18.30;99.90;17.70;100930;;;;600256;238;24029;-78
2023/08/21 01:17:56;;;;;;;9.60;6.60;;;18.30;99.90;17.60;100925;;;;594012;238;24051;-81
2023/08/21 01:20:25;;;;;;;8.23;6.63;;;18.10;99.90;17.50;100927;;;;593968;238;24123;-78
2023/08/21 01:22:53;;;;;;;7.57;6.13;;;18.10;99.90;17.40;100924;;;;599608;238;24084;-80
2023/08/21 01:25:21;;;;;;;9.07;5.83;;;18.00;99.90;17.30;100921;;;;593600;238;23061;-79
2023/08/21 01:27:49;;;;;;;6.53;5.93;;;17.90;99.90;17.20;100923;;;;593497;238;24043;-79
2023/08/21 01:30:17;;;;;;;9.88;8.88;;;17.80;99.90;17.00;100927;;;;586714;238;34951;-79
2023/08/21 01:33:06;;;;;;;9.03;7.30;;;17.70;99.90;16.90;100929;;;;603452;238;24084;-80
2023/08/21 01:35:37;;;;;;;9.87;6.87;;;17.60;99.90;16.80;100919;;;;594063;238;26254;-79
2023/08/21 01:38:02;;;;;;;11.97;6.83;;;17.40;99.90;16.70;100929;;;;593424;238;24082;-78
2023/08/21 01:40:31;;;;;;;7.30;5.73;;;17.30;99.90;16.60;100933;;;;594390;238;24094;-78
2023/08/21 01:42:59;;;;;;;9.80;6.73;;;17.20;99.90;16.50;100925;;;;593909;238;24031;-78
2023/08/21 01:45:27;;;;;;;10.27;6.53;;;17.20;99.90;16.50;100923;;;;594218;237;24007;-79
2023/08/21 01:47:55;;;;;;;8.67;7.23;;;17.10;99.90;16.40;100927;;;;594219;238;24034;-78
2023/08/21 01:50:23;;;;;;;9.80;7.20;;;17.00;99.90;16.30;100927;;;;593893;238;24022;-77
2023/08/21 01:52:51;;;;;;;9.10;6.97;;;16.90;99.90;16.20;100931;;;;595015;237;24036;-78
2023/08/21 01:55:18;;;;;;;9.23;7.13;;;17.00;99.90;16.20;100929;;;;595044;238;24049;-79
2023/08/21 01:57:47;;;;;;;10.73;7.87;;;16.80;99.90;16.10;100928;;;;594542;238;24108;-78
2023/08/21 02:00:14;;;;;;;10.13;7.47;;;16.70;99.90;16.10;100931;;;;594475;238;24094;-79
2023/08/21 02:02:42;;;;;;;9.33;7.27;;;16.70;99.90;16.00;100924;;;;594349;238;24019;-79
2023/08/21 02:05:10;;;;;;;12.17;7.53;;;16.70;99.90;16.00;100925;;;;594575;238;24083;-78
2023/08/21 02:07:38;;;;;;;11.07;7.73;;;16.60;99.90;16.00;100923;;;;594007;238;24015;-81
2023/08/21 02:10:06;;;;;;;9.40;8.03;;;16.60;99.90;15.90;100926;;;;594385;238;24038;-78
2023/08/21 02:12:34;;;;;;;9.33;7.07;;;16.60;99.90;15.90;100931;;;;594694;238;24026;-78
2023/08/21 02:15:02;;;;;;;11.53;7.30;;;16.50;99.90;15.80;100922;;;;594497;237;24080;-79
2023/08/21 02:17:30;;;;;;;9.33;7.67;;;16.50;99.90;15.80;100921;;;;594163;238;24010;-79
2023/08/21 02:19:58;;;;;;;9.93;7.20;;;16.40;99.90;15.80;100931;;;;600234;238;24069;-82
2023/08/21 02:22:27;;;;;;;7.10;6.40;;;16.30;99.90;15.70;100927;;;;594189;238;24071;-85
2023/08/21 02:24:55;;;;;;;11.87;6.40;;;16.30;99.90;15.70;100924;;;;593929;238;24097;-82
2023/08/21 02:27:24;;;;;;;10.20;7.23;;;16.30;99.90;15.70;100923;;;;594192;238;24031;-81
2023/08/21 02:29:52;;;;;;;10.53;6.53;;;16.30;99.90;15.60;100926;;;;593840;238;24024;-82
2023/08/21 02:32:20;;;;;;;9.47;6.23;;;16.30;99.90;15.60;100922;;;;593623;238;24040;-84
2023/08/21 02:34:48;;;;;;;8.50;6.03;;;16.20;99.90;15.50;100922;;;;593886;238;24024;-81
2023/08/21 02:37:16;;;;;;;10.07;7.07;;;16.20;99.90;15.50;100919;;;;593513;238;24110;-81
2023/08/21 02:39:44;;;;;;;6.10;5.27;;;16.10;99.90;15.40;100930;;;;594010;238;24082;-83
2023/08/21 02:42:11;;;;;;;8.20;6.13;;;16.10;99.90;15.40;100931;;;;594327;237;24030;-84
2023/08/21 02:44:42;;;;;;;9.87;5.63;;;16.00;99.90;15.30;100920;;;;594669;238;24028;-84
2023/08/21 02:47:07;;;;;;;7.43;5.90;;;16.00;99.90;15.30;100920;;;;604662;238;24057;-83
2023/08/21 02:49:35;;;;;;;8.90;6.67;;;15.90;99.90;15.30;100922;;;;595057;238;24047;-82
2023/08/21 02:52:04;;;;;;;10.83;6.07;;;15.80;99.90;15.20;100925;;;;595036;238;24096;-80
2023/08/21 02:54:32;;;;;;;9.73;5.43;;;15.80;99.90;15.20;100928;;;;594802;238;24065;-81
2023/08/21 02:57:00;;;;;;;8.50;5.83;;;15.80;99.90;15.10;100921;;;;593964;238;24012;-78
2023/08/21 02:59:27;;;;;;;7.37;5.80;;;15.80;99.90;15.10;100923;;;;593819;238;24033;-79
2023/08/21 03:01:55;;;;;;;7.80;5.70;;;15.80;99.90;15.10;100925;;;;593335;238;24072;-80
2023/08/21 03:04:23;;;;;;;7.90;5.30;;;15.70;99.90;15.10;100925;;;;594594;237;24043;-81
2023/08/21 03:06:51;;;;;;;8.87;5.33;;;15.70;99.90;15.10;100930;;;;594685;238;24032;-79
2023/08/21 03:09:19;;;;;;;6.03;5.27;;;15.70;99.90;15.00;100930;;;;594526;238;24030;-79
2023/08/21 03:11:47;;;;;;;7.10;5.23;;;15.70;99.90;15.00;100928;;;;594740;238;24142;-79
2023/08/21 03:14:16;;;;;;;6.87;5.53;;;15.60;99.90;14.90;100925;;;;594888;237;24023;-78
2023/08/21 03:16:44;;;;;;;5.57;4.80;;;15.50;99.90;14.80;100924;;;;594578;238;24060;-79
2023/08/21 03:19:12;;;;;;;6.50;4.70;;;15.50;99.90;14.80;100928;;;;594854;238;24038;-79
2023/08/21 03:21:40;;;;;;;6.70;3.83;;;15.50;99.90;14.70;100922;;;;594583;238;24041;-81
2023/08/21 03:24:08;;;;;;;8.63;4.40;;;15.40;99.90;14.70;100910;;;;594154;238;24052;-81
2023/08/21 03:26:36;;;;;;;7.50;3.87;;;15.40;99.90;14.60;100913;;;;593918;238;24050;-78
2023/08/21 03:29:04;;;;;;;8.03;4.70;;;15.30;99.90;14.60;100913;;;;593795;238;24028;-80
2023/08/21 03:31:32;;;;;;;6.20;4.30;;;15.30;99.90;14.50;100913;;;;593978;238;24037;-78
2023/08/21 03:34:00;;;;;;;6.37;3.20;;;15.20;99.90;14.50;100914;;;;593841;238;24028;-78
2023/08/21 03:36:31;;;;;;;5.57;3.20;;;15.20;99.90;14.50;100912;;;;594096;238;24083;-78
2023/08/21 03:39:00;;;;;;;3.67;2.87;;;15.20;99.90;14.60;100914;;;;593897;238;24035;-78
2023/08/21 03:41:31;;;;;;;3.63;3.33;;;15.20;99.90;14.50;100908;;;;594405;238;24136;-85
2023/08/21 03:43:56;;;;;;;4.50;3.40;;;15.20;99.90;14.50;100912;;;;594269;238;24107;-84
2023/08/21 03:46:24;;;;;;;4.50;3.40;;;15.20;99.90;14.50;100908;;;;594417;238;24067;-80
2023/08/21 03:48:52;;;;;;;5.60;3.10;;;15.20;99.90;14.50;100901;;;;594199;238;24095;-82
2023/08/21 03:51:19;;;;;;;2.97;2.77;;;15.20;99.90;14.50;100900;;;;594493;238;24097;-78
2023/08/21 03:53:50;;;;;;;6.83;3.57;;;15.20;99.90;14.50;100896;;;;594229;238;24058;-86
2023/08/21 03:56:19;;;;;;;7.30;3.70;;;15.20;99.90;14.50;100895;;;;594033;238;24059;-80
2023/08/21 03:58:48;;;;;;;4.50;2.80;;;15.20;99.90;14.50;100895;;;;593811;238;24046;-80
2023/08/21 04:01:15;;;;;;;3.20;2.90;;;15.10;99.90;14.50;100901;;;;593836;238;24054;-81
2023/08/21 04:03:42;;;;;;;4.03;3.40;;;15.10;99.90;14.50;100900;;;;593573;238;24039;-79
2023/08/21 04:06:10;;;;;;;3.63;3.33;;;15.20;99.90;14.50;100904;;;;593454;238;24133;-82
2023/08/21 04:08:38;;;;;;;8.43;3.70;;;15.20;99.90;14.50;100911;;;;593494;238;24071;-78
2023/08/21 04:11:06;;;;;;;3.23;2.80;;;15.20;99.90;14.50;100904;;;;594202;238;24122;-81
2023/08/21 04:13:34;;;;;;;7.43;3.83;;;15.20;99.90;14.50;100894;;;;594330;238;24031;-82
2023/08/21 04:16:02;;;;;;;7.67;4.20;;;15.20;99.90;14.60;100895;;;;594935;237;24034;-83
2023/08/21 04:18:30;;;;;;;6.53;3.50;;;15.20;99.90;14.60;100894;;;;595464;238;24108;-84
2023/08/21 04:20:58;;;;;;;7.37;3.70;;;15.30;99.90;14.70;100890;;;;594962;238;24092;-78
2023/08/21 04:23:26;;;;;;;7.53;3.30;;;15.30;99.90;14.80;100887;;;;594964;238;24053;-83
2023/08/21 04:25:53;;;;;;;3.87;3.47;;;15.40;99.90;14.80;100889;;;;594637;238;24049;-85
2023/08/21 04:28:21;;;;;;;4.23;3.40;;;15.50;99.90;14.90;100893;;;;594549;238;24131;-79
2023/08/21 04:30:49;;;;;;;5.30;3.73;;;15.50;99.90;15.00;100893;;;;594482;238;24034;-83
2023/08/21 04:33:17;;;;;;;4.93;3.90;;;15.60;99.90;15.10;100885;;;;594162;238;24054;-80
2023/08/21 04:35:45;;;;;;;5.97;3.93;;;15.70;99.90;15.20;100899;;;;594177;238;24078;-78
2023/08/21 04:38:13;;;;;;;5.17;3.77;;;15.80;99.90;16.00;100901;;;;594314;238;24095;-83
2023/08/21 04:40:41;;;;;;;5.17;4.13;;;16.50;99.90;17.50;100904;;;;594162;238;24086;-80
2023/08/21 04:43:09;;;;;;;4.53;4.17;;;18.00;99.90;19.00;100911;;;;594336;238;24038;-82
2023/08/21 04:45:37;;;;;;;4.30;3.73;;;19.60;99.90;20.60;100901;;;;594348;238;24077;-84
2023/08/21 04:48:05;;;;;;;3.57;3.13;;;21.20;99.90;21.90;100918;;;;595119;238;24105;-78
2023/08/21 04:50:33;;;;;;;4.07;2.93;;;22.60;99.90;23.10;100917;;;;593140;238;24008;-78
2023/08/21 04:53:01;;;;;;;5.27;2.87;;;23.90;99.90;24.40;100910;;;;594523;238;24071;-78
2023/08/21 04:55:28;;;;;;;3.53;2.70;;;25.20;99.90;25.50;100908;;;;594466;238;24106;-79
2023/08/21 04:57:57;;;;;;;4.30;3.20;;;27.20;99.90;26.40;100897;;;;593921;238;23071;-79
2023/08/21 05:00:26;;;;;;;7.40;3.63;;;27.90;99.90;27.10;100897;;;;593685;238;23053;-79
2023/08/21 05:02:54;;;;;;;5.70;2.60;;;27.80;99.90;27.80;100893;;;;593615;238;23041;-82
2023/08/21 05:05:22;;;;;;;2.60;2.40;;;28.60;99.90;28.60;100904;;;;593962;238;23042;-81
2023/08/21 05:07:52;;;;;;;10.63;2.90;;;29.40;99.90;29.60;100905;;;;593676;238;24044;-86
2023/08/21 05:10:18;;;;;;;7.65;2.90;;;30.30;99.90;30.50;100910;;;;588768;238;34961;-79
2023/08/21 05:12:49;;;;;;;6.82;2.80;;;31.20;99.80;31.00;100909;;;;593972;238;23044;-86
2023/08/21 05:15:14;;;;;;;5.65;3.20;;;31.80;97.20;31.70;100905;;;;594176;238;24072;-85
2023/08/21 05:17:41;;;;;;;6.75;3.50;;;32.40;94.60;32.10;100906;;;;594024;238;23073;-81
2023/08/21 05:20:13;;;;;;;6.53;3.03;;;32.70;92.70;32.70;100904;;;;594257;238;23237;-81
2023/08/21 05:22:37;;;;;;;5.87;2.92;;;33.40;91.30;33.40;100908;;;;588754;238;34943;-84
2023/08/21 05:25:05;;;;;;;4.03;2.65;;;33.90;86.10;33.80;100907;;;;594071;238;23064;-85
2023/08/21 05:27:34;;;;;;;7.85;2.67;;;34.80;80.80;34.20;100909;;;;594917;237;23058;-83
2023/08/21 05:30:02;;;;;;;5.47;2.47;;;35.40;77.40;34.90;100913;;;;595203;238;23063;-84
2023/08/21 05:32:30;;;;;;;3.03;2.50;;;35.40;77.30;35.40;100923;;;;594912;238;24157;-83
2023/08/21 05:34:58;;;;;;;4.80;2.83;;;36.00;75.20;36.20;100928;;;;594489;238;23036;-86
2023/08/21 05:37:26;;;;;;;4.35;2.47;;;36.60;72.30;36.90;100934;;;;594417;238;23057;-81
2023/08/21 05:39:54;;;;;;;5.03;2.90;;;37.30;67.70;37.00;100948;;;;600275;238;23049;-80
2023/08/21 05:42:23;;;;;;;6.82;2.55;;;37.60;64.20;37.00;100958;;;;595126;238;23065;-82
2023/08/21 05:44:51;;;;;;;13.25;3.22;;;37.60;64.20;35.60;100948;;;;598474;238;23100;-81
2023/08/21 05:47:22;;;;;;;13.02;3.05;;;36.60;65.10;35.30;100948;;;;594719;238;23033;-81
2023/08/21 05:49:48;;;;;;;8.15;2.58;;;36.00;66.60;35.70;100959;;;;594755;238;23060;-84
2023/08/21 05:52:15;;;;;;;4.80;2.50;;;36.10;67.00;36.40;100961;;;;594944;238;23088;-79
2023/08/21 05:54:43;;;;;;;3.67;2.40;;;36.70;66.50;37.30;100965;;;;594780;238;23082;-80
2023/08/21 05:57:11;;;;;;;5.78;3.05;;;37.40;63.80;37.80;100969;;;;601312;238;24089;-80
2023/08/21 05:59:38;;;;;;;6.47;2.55;;;38.00;62.30;38.00;100971;;;;594817;238;23055;-78
2023/08/21 06:02:07;;;;;;;4.87;2.30;;;38.30;61.00;38.10;100979;;;;592475;238;23060;-79
2023/08/21 06:04:37;;;;;;;7.93;2.97;;;38.40;59.90;38.40;100972;;;;595003;238;23046;-82
2023/08/21 06:07:03;;;;;;;5.90;2.47;;;38.70;60.10;37.90;100976;;;;593179;238;23052;-83
2023/08/21 06:09:34;;;;;;;8.80;2.47;;;38.50;59.30;36.20;100979;;;;599971;238;23070;-81
2023/08/21 06:12:03;;;;;;;2.58;2.20;;;37.20;59.80;35.00;100972;;;;594248;238;23186;-81
2023/08/21 06:14:31;;;;;;;6.43;2.70;;;35.80;61.90;35.00;100983;;;;593394;238;26256;-81
2023/08/21 06:17:05;;;;;;;9.65;2.78;;;35.40;63.90;35.90;100975;;;;594069;238;23044;-81
2023/08/21 06:19:30;;;;;;;10.60;2.47;;;37.10;61.90;37.30;100989;;;;593564;238;23079;-84
2023/08/21 06:21:58;;;;;;;6.82;2.62;;;37.00;61.80;38.50;100991;;;;594258;238;23166;-83
2023/08/21 06:24:26;;;;;;;10.35;2.33;;;38.20;60.70;39.20;100989;;;;600025;238;23049;-83
2023/08/21 06:26:54;;;;;;;6.68;2.78;;;39.20;58.00;39.50;100991;;;;594082;238;23042;-81
2023/08/21 06:29:22;;;;;;;7.25;2.83;;;39.60;56.60;40.00;100991;;;;603628;238;23107;-80
2023/08/21 06:31:51;;;;;;;4.68;2.65;;;40.70;55.20;40.50;100986;;;;593768;238;23091;-89
2023/08/21 06:34:19;;;;;;;5.30;2.60;;;40.70;54.60;40.80;100991;;;;594366;238;23033;-81
2023/08/21 06:36:47;;;;;;;10.40;2.83;;;41.00;53.80;41.40;100987;;;;594460;238;23042;-88
2023/08/21 06:39:16;;;;;;;10.73;3.22;;;41.50;53.40;42.00;100995;;;;595205;237;23031;-88
2023/08/21 06:41:44;;;;;;;3.28;2.30;;;42.10;51.90;41.50;100991;;;;599662;233;23001;-87
2023/08/21 06:44:16;;;;;;;5.95;2.30;;;41.80;51.60;42.10;100996;;;;604458;236;23037;-79
2023/08/21 06:46:41;;;;;;;3.12;2.20;;;42.20;51.20;42.80;100996;;;;602113;235;23053;-87
2023/08/21 06:49:09;;;;;;;2.65;2.45;;;42.80;49.90;43.70;100997;;;;593221;233;23123;-87
2023/08/21 06:51:37;;;;;;;5.60;2.40;;;43.70;48.70;44.00;101004;;;;605237;232;23073;-87
2023/08/21 06:54:06;;;;;;;5.65;2.55;;;44.10;48.20;44.10;101011;;;;601459;233;23065;-90
2023/08/21 06:56:37;;;;;;;9.95;2.72;;;44.30;47.30;43.90;101004;;;;595409;233;23055;-80
2023/08/21 06:59:02;;;;;;;15.13;3.20;;;44.00;47.30;43.70;101010;;;;606772;233;23070;-78
2023/08/21 07:01:33;;;;;;;6.10;2.33;;;44.00;47.50;43.70;101009;;;;591176;233;23051;-81
2023/08/21 07:04:01;;;;;;;5.62;2.50;;;44.00;47.10;44.00;101017;;;;596170;233;23031;-81
2023/08/21 07:06:26;;;;;;;4.97;2.90;;;44.00;47.00;44.10;101016;;;;595013;233;23018;-80
2023/08/21 07:08:57;;;;;;;10.80;7.85;;;44.10;46.30;44.30;101017;;;;597395;236;23041;-82
2023/08/21 07:11:25;;;;;;;7.80;3.60;;;44.30;46.10;44.00;101014;;;;594742;240;23091;-81
2023/08/21 07:13:53;;;;;;;7.15;2.50;;;44.10;46.20;44.40;101013;;;;589924;239;24101;-81
2023/08/21 07:16:20;;;;;;;9.45;2.65;;;44.30;46.60;44.90;101007;;;;588476;240;23052;-85
2023/08/21 07:18:48;;;;;;;8.27;2.70;;;44.70;46.30;45.40;101010;;;;588919;240;23077;-82
2023/08/21 07:21:16;;;;;;;24.15;4.55;;;45.30;45.40;45.90;101010;;;;588871;240;23067;-81
2023/08/21 07:23:44;;;;;;;11.43;3.72;;;45.80;44.80;46.30;101017;;;;588792;240;23092;-80
2023/08/21 07:26:12;;;;;;;4.37;2.45;;;46.30;43.90;46.70;101019;;;;588392;240;23076;-83
2023/08/21 07:28:40;;;;;;;8.15;2.22;;;46.60;43.90;47.00;101021;;;;588422;240;24086;-81
2023/08/21 07:31:08;;;;;;;16.08;2.85;;;47.00;42.90;47.10;101011;;;;590838;240;23139;-90
2023/08/21 07:33:36;;;;;;;7.10;3.03;;;47.10;42.20;47.20;101020;;;;588277;240;23040;-81
2023/08/21 07:36:04;;;;;;;2.40;2.17;;;47.30;42.20;47.30;101018;;;;588186;240;23051;-86
2023/08/21 07:38:35;;;;;;;3.28;1.80;;;47.30;41.90;47.40;101022;;;;590810;240;23091;-80
2023/08/21 07:41:07;;;;;;;7.37;2.47;;;47.50;41.60;47.40;101027;;;;591167;240;23104;-81
2023/08/21 07:43:37;;;;;;;32.72;4.60;;;47.50;41.40;47.70;101023;;;;591982;240;23078;-81
2023/08/21 07:46:11;;;;;;;12.18;2.47;;;47.80;41.90;48.20;101024;;;;603900;233;23082;-88
2023/08/21 07:48:39;;;;;;;5.03;2.20;;;48.20;41.70;48.50;101008;;;;606204;233;23034;-80
2023/08/21 07:51:03;;;;;;;8.90;2.30;;;48.60;41.50;49.10;101016;;;;611718;231;34763;-85
2023/08/21 07:53:31;;;;;;;14.50;2.60;;;49.00;40.20;48.90;101018;;;;608958;233;23058;-89
2023/08/21 07:55:59;;;;;;;8.85;3.08;;;48.90;40.20;48.90;101017;;;;608085;233;23034;-90
2023/08/21 07:58:27;;;;;;;3.33;2.22;;;49.00;39.90;49.00;101018;;;;602103;233;34782;-88
2023/08/21 08:00:55;;;;;;;2.35;1.70;;;49.00;39.60;49.00;101016;;;;607278;233;23025;-84
2023/08/21 08:03:23;;;;;;;8.00;2.60;;;49.00;39.80;49.50;101016;;;;607953;233;23053;-83
2023/08/21 08:05:51;;;;;;;3.65;2.10;;;49.40;38.80;49.40;101024;;;;607907;233;23071;-81
2023/08/21 08:08:21;;;;;;;7.03;2.05;;;49.40;38.80;49.20;101033;;;;607610;233;23053;-82
2023/08/21 08:10:49;;;;;;;2.37;1.70;;;49.30;38.70;48.70;101025;;;;604710;233;23073;-79
2023/08/21 08:13:22;;;;;;;12.20;2.58;;;48.80;39.10;48.70;101025;;;;604841;233;23019;-82
2023/08/21 08:15:49;;;;;;;7.37;2.15;;;48.70;39.30;48.60;101020;;;;607036;233;24036;-86
2023/08/21 08:18:14;;;;;;;6.25;1.80;;;48.50;39.20;48.90;101019;;;;604267;233;23033;-80
2023/08/21 08:20:42;;;;;;;2.37;1.80;;;49.10;39.00;49.30;101014;;;;607383;233;23019;-81
2023/08/21 08:23:10;;;;;;;3.03;1.85;;;49.10;39.00;49.30;101019;;;;616733;233;23025;-81
2023/08/21 08:25:38;;;;;;;8.95;2.12;;;49.30;38.40;49.30;101018;;;;606922;233;23011;-83
2023/08/21 08:28:06;;;;;;;34.85;3.85;;;49.30;38.40;49.10;101017;;;;606614;233;23033;-80
2023/08/21 08:30:38;;;;;;;22.90;3.72;;;49.30;38.30;48.70;101016;;;;606521;233;23083;-79
2023/08/21 08:33:02;;;;;;;17.45;3.28;;;49.00;39.30;48.30;101022;;;;605849;233;23000;-78
2023/08/21 08:35:30;;;;;;;5.57;1.75;;;48.50;38.70;48.30;101025;;;;596661;237;23089;-78
2023/08/21 08:37:58;;;;;;;5.00;2.00;;;48.40;39.10;48.70;101020;;;;588338;239;23093;-78
2023/08/21 08:40:26;;;;;;;6.05;2.05;;;48.70;39.30;49.00;101015;;;;583818;240;34991;-80
2023/08/21 08:42:56;;;;;;;17.67;3.60;;;49.10;38.60;49.10;101019;;;;589026;240;23163;-79
2023/08/21 08:45:22;;;;;;;2.90;1.80;;;49.40;38.30;48.70;101012;;;;588366;240;23087;-78
2023/08/21 08:47:49;;;;;;;2.87;1.90;;;49.30;37.50;48.20;101018;;;;590088;240;23044;-78
2023/08/21 08:50:21;;;;;;;10.65;3.03;;;48.70;38.30;48.20;101023;;;;589093;240;23041;-80
2023/08/21 08:52:45;;;;;;;7.85;1.77;;;48.60;38.20;48.30;101021;;;;591194;240;24083;-86
2023/08/21 08:55:14;;;;;;;23.85;3.70;;;48.70;38.70;48.50;101013;;;;597894;240;23103;-85
2023/08/21 08:57:41;;;;;;;6.95;2.28;;;49.00;38.70;49.20;101013;;;;588907;240;23106;-91
2023/08/21 09:00:13;;;;;;;8.82;2.30;;;50.10;38.60;49.50;101017;;;;588287;239;25147;-90
2023/08/21 09:02:38;;;;;;;4.15;2.05;;;50.10;38.50;49.80;101014;;;;592414;239;23040;-84
2023/08/21 09:05:06;;;;;;;4.82;1.90;;;50.50;38.20;50.00;101012;;;;598784;233;23029;-80
2023/08/21 09:07:34;;;;;;;9.48;2.12;;;50.90;36.80;49.70;101012;;;;602853;233;23061;-80
2023/08/21 09:10:02;;;;;;;10.27;2.92;;;50.60;37.10;50.10;101013;;;;605240;233;23006;-80
2023/08/21 09:12:29;;;;;;;4.45;1.58;;;50.80;37.30;50.20;101020;;;;609849;233;23055;-81
2023/08/21 09:14:57;;;;;;;8.90;2.45;;;51.10;36.50;50.40;101021;;;;605064;233;23067;-83
2023/08/21 09:17:25;;;;;;;22.83;4.20;;;51.50;36.50;50.40;101020;;;;615003;233;23062;-87
2023/08/21 09:19:56;;;;;;;8.30;2.30;;;51.70;36.10;50.00;101030;;;;598656;233;23023;-80
2023/08/21 09:22:21;;;;;;;5.32;1.70;;;51.30;35.90;49.60;101025;;;;602061;233;23010;-84
2023/08/21 09:25:14;;;;;;;10.20;2.30;;;50.80;36.40;49.80;101015;;;;600137;233;23182;-85
2023/08/21 09:27:35;;;;;;;15.18;3.30;;;50.80;36.30;50.30;101016;;;;592087;238;23015;-88
2023/08/21 09:30:00;;;;;;;13.23;3.20;;;51.30;36.20;50.40;101008;;;;594286;233;23016;-84
2023/08/21 09:32:28;;;;;;;3.95;1.73;;;51.60;36.00;50.70;101001;;;;594794;233;23065;-86
2023/08/21 09:34:56;;;;;;;7.97;1.95;;;52.00;35.60;50.90;101008;;;;596258;233;23055;-85
2023/08/21 09:37:24;;;;;;;6.47;4.90;;;52.30;35.30;51.00;101003;;;;594253;233;23020;-83
2023/08/21 09:39:51;;;;;;;3.00;1.90;;;52.40;35.40;50.60;101010;;;;594516;235;23035;-80
2023/08/21 09:42:21;;;;;;;2.25;1.52;;;52.30;34.80;50.70;101009;;;;597490;233;23024;-84
2023/08/21 09:44:52;;;;;;;13.60;2.30;;;52.30;35.00;51.00;101003;;;;599223;233;22975;-83
2023/08/21 09:47:16;;;;;;;9.07;1.90;;;52.50;34.40;50.90;101004;;;;599743;233;23012;-84
2023/08/21 09:49:47;;;;;;;3.30;1.30;;;52.60;34.30;50.40;101003;;;;595937;233;23027;-84
2023/08/21 09:52:13;;;;;;;8.82;1.83;;;51.60;35.30;50.00;101007;;;;598283;233;23013;-80
2023/08/21 09:54:44;;;;;;;7.57;1.95;;;51.60;35.30;48.30;101001;;;;599499;233;23011;-81
2023/08/21 09:57:09;;;;;;;3.97;2.22;;;50.30;35.70;47.70;101005;;;;605554;233;24060;-80
2023/08/21 09:59:39;;;;;;;4.95;1.50;;;49.30;36.10;48.40;101001;;;;591219;233;23044;-79
2023/08/21 10:02:05;;;;;;;42.33;4.70;;;49.40;36.10;48.90;100991;;;;593471;233;23031;-80
2023/08/21 10:04:33;;;;;;;4.30;2.00;;;50.00;36.30;49.00;100987;;;;593389;235;23013;-80
2023/08/21 10:07:04;;;;;;;5.50;1.55;;;50.20;35.90;48.70;100982;;;;597159;237;23130;-80
2023/08/21 10:09:29;;;;;;;3.50;1.87;;;50.20;35.90;48.00;100989;;;;597733;233;23057;-79
2023/08/21 10:12:01;;;;;;;22.02;4.00;;;49.30;36.30;47.20;100994;;;;599949;234;23150;-80
2023/08/21 10:14:27;;;;;;;7.68;2.50;;;47.80;37.00;45.60;100985;;;;590982;233;23120;-79
2023/08/21 10:16:55;;;;;;;4.55;1.70;;;46.30;38.70;44.20;100987;;;;599814;233;23045;-79
2023/08/21 10:19:26;;;;;;;10.43;2.27;;;44.70;39.80;42.60;100986;;;;592773;233;34735;-81
2023/08/21 10:21:53;;;;;;;4.47;1.70;;;44.60;39.70;41.20;100986;;;;596315;233;22995;-83
2023/08/21 10:24:31;;;;;;;2.72;1.70;;;43.00;41.30;39.60;100985;;;;594053;233;23006;-84
2023/08/21 10:26:56;;;;;;;7.62;1.80;;;39.30;44.80;37.70;100988;;;;592951;233;24123;-79
2023/08/21 10:29:24;;;;;;;4.82;1.58;;;39.20;44.70;36.40;100979;;;;601325;233;23044;-82
2023/08/21 10:32:04;;;;;;;3.83;1.48;;;37.60;46.90;35.50;100981;;;;610890;232;24030;-81
2023/08/21 10:34:38;;;;;;;5.22;1.60;;;36.40;49.10;34.60;100988;;;;597891;233;23072;-85
2023/08/21 10:37:12;;;;;;;2.15;1.95;;;35.30;50.70;33.90;100983;;;;598874;233;23100;-81
2023/08/21 10:39:39;;;;;;;6.95;1.30;;;34.40;52.70;33.50;100980;;;;601131;233;23080;-82
2023/08/21 10:42:13;;;;;;;6.70;1.70;;;33.90;53.00;33.00;100980;;;;599217;234;23016;-79
2023/08/21 10:44:51;;;;;;;4.90;1.77;;;33.30;54.00;32.80;100981;;;;602851;233;23033;-82
2023/08/21 10:47:21;;;;;;;13.80;1.95;;;33.00;54.80;32.20;100972;;;;602464;233;24034;-79
2023/08/21 10:49:54;;;;;;;2.90;1.83;;;32.60;55.60;31.70;100983;;;;605703;233;23122;-79
2023/08/21 10:52:39;;;;;;;13.20;2.08;;;31.70;57.50;31.40;100980;;;;611211;233;23007;-80
2023/08/21 10:55:10;;;;;;;5.82;2.22;;;31.60;57.10;31.30;100983;;;;591309;235;23085;-79
2023/08/21 10:57:37;;;;;;;6.62;1.45;;;31.50;57.30;31.00;100980;;;;592781;239;23072;-78
2023/08/21 11:00:14;;;;;;;2.67;1.40;;;31.30;57.40;30.80;100977;;;;605764;233;23040;-78
2023/08/21 11:02:44;;;;;;;4.40;1.02;;;31.00;57.60;30.40;100978;;;;603830;234;23018;-78
2023/08/21 11:05:15;;;;;;;4.40;1.75;;;30.80;58.00;30.10;100970;;;;601075;233;24000;-83
2023/08/21 11:07:43;;;;;;;2.92;1.10;;;30.40;58.80;30.00;100977;;;;601573;233;23017;-78
2023/08/21 11:10:27;;;;;;;12.00;1.83;;;30.30;59.70;29.60;100971;;;;605371;233;23022;-81
2023/08/21 11:13:04;;;;;;;4.55;1.33;;;30.00;60.10;29.40;100977;;;;597116;233;22994;-82